Meteo Giornale » Osservazioni meteo Italia » Monte Cimone
ore: 06:55 - Osservazioni Meteo Monte Cimone
Lat. 44° 12' N Lon. 10° 42' E Alt. 2165 metri s.l.m.
13 °C
Sereno
Temp. 24 Ore
13 °C
17 °C
Nord
5.5 Km/h
Dew point 4 °C
Umidità 54 %
Visibilità 20 Km
Il sole sorge alle ore 06:41
Il sole tramonta alle ore 19:52
| Data e Ora | Cielo e Fenomeni | T °C | DP °C | Um. % | Pres. hPa | Vis. km | Vento km/h | |
|---|---|---|---|---|---|---|---|---|
| Oggi h: 06:55 | Sereno | 13 | 4 | 54 | 1029 | 20 | N 5.5 | |
| Oggi h: 05:55 | Sereno | 13 | 8 | 71 | 1029 | 20 | N/NO 11.1 | |
| Oggi h: 04:55 | Sereno | 13 | 7 | 66 | 1030 | 20 | N/NO 9.3 | |
| Oggi h: 03:55 | Sereno | 13 | 7 | 66 | 1030 | 20 | N/NO 11.1 | |
| Oggi h: 02:55 | Sereno | 13 | 3 | 50 | 1030 | 20 | NO 13 | |
| Oggi h: 01:55 | Sereno | 13 | 5 | 58 | 1030 | 12 | N/NO 14.8 | |
| Oggi h: 00:55 | Sereno | 14 | 0 | 38 | 1030 | 12 | NO 14.8 | |
| Ieri h: 23:55 | Sereno | 14 | 0 | 38 | 1030 | 12 | O 14.8 | |
| Ieri h: 22:55 | Sereno | 14 | 0 | 38 | 1030 | 12 | O/SO 14.8 | |
| Ieri h: 21:55 | Sereno | 14 | 5 | 54 | 1030 | 12 | O/SO 14.8 | |
| Ieri h: 20:55 | Sereno | 15 | 10 | 72 | 1030 | 12 | S/SO 16.7 | |
| Ieri h: 19:55 | Sereno | 16 | 10 | 67 | 1029 | 12 | SO 20.3 | |
| Ieri h: 18:55 | Sereno | 16 | 12 | 77 | 1029 | 12 | N 3.7 | |
| Ieri h: 17:55 | Sereno | 16 | 12 | 77 | 1030 | 12 | N 5.5 | |
| Ieri h: 16:55 | Sereno | 16 | 10 | 67 | 1030 | 11 | N 3.7 | |
| Ieri h: 15:55 | Sereno | 16 | 12 | 77 | 1030 | 11 | N 5.5 | |
| Ieri h: 14:55 | Sereno | 16 | 12 | 77 | 1030 | 11 | N 9.3 | |
| Ieri h: 13:55 | Sereno | 16 | 11 | 72 | 1030 | 11 | N 11.1 | |
| Ieri h: 12:55 | Sereno | 16 | 10 | 67 | 1030 | 11 | N 7.4 | |
| Ieri h: 11:55 | Sereno | 17 | 10 | 63 | 1029 | 11 | N 9.3 | |
| Ieri h: 10:55 | Sereno | 16 | 7 | 55 | 1029 | 11 | N 7.4 | |
| Ieri h: 09:55 | Sereno | 16 | 0 | 33 | 1029 | 11 | S 11.1 | |
| Ieri h: 08:55 | Sereno | 14 | 4 | 50 | 1029 | 11 | N 11.1 | |
| Ieri h: 07:55 | Sereno | 14 | 3 | 47 | 1029 | 11 | SO 14.8 | |



